weather.gov     
National Weather Service

Terminal Aerodrome Forecast
NWS Homepage
This page is being discontinued on March 12, 2014.
The same data is available at this site. Please update your bookmarks.
Thank you, and we apologize for the inconvenience.
Please send an email to SR-SRH.Webmaster@noaa.gov with any concerns.


Current Version
Previous Version:    01  02  03  04  05  06  07  08  09  10  11  12  13  14  15  16  17  18  19  20  21  22  23  24  25  26  27  28  29  30  
   31  32  33  34  35  36  37  38  39  40  41  
[Printable]
713
FTUS41 KALY 221100 RRA
TAFALB
TAF
KALB 221146Z 2212/2312 01007G15KT P6SM VCSH SCT011 OVC028
      TEMPO 2212/2214 OVC009
     FM221600 36010KT P6SM -SHRA OVC015
     FM222000 35012G19KT 4SM -RA BR SCT008 OVC015
     FM230400 34012G19KT 3SM -RA BR OVC008=


U.S. Dept. of Commerce
NOAA National Weather Service
1325 East West Highway
Silver Spring, MD 20910
E-mail: w-nws.webmaster@noaa.gov
Page last modified: May 16, 2007
NATIONAL WEATHER SERVICE: for Safety, for Work, for Fun - FOR LIFE